sensor_id;sensor_type;location;lat;lon;timestamp;temperature;humidity
21487;DHT22;10905;50.822;4.336;2023-02-19T00:01:14;11.20;99.90
21487;DHT22;10905;50.822;4.336;2023-02-19T00:03:41;11.30;99.90
21487;DHT22;10905;50.822;4.336;2023-02-19T00:06:09;11.20;99.90
21487;DHT22;10905;50.822;4.336;2023-02-19T00:08:36;11.20;99.90
21487;DHT22;10905;50.822;4.336;2023-02-19T00:11:07;11.20;99.90
21487;DHT22;10905;50.822;4.336;2023-02-19T00:13:39;11.30;99.90
21487;DHT22;10905;50.822;4.336;2023-02-19T00:16:14;11.30;99.90
21487;DHT22;10905;50.822;4.336;2023-02-19T00:18:40;11.30;99.90
21487;DHT22;10905;50.822;4.336;2023-02-19T00:21:06;11.40;99.90
21487;DHT22;10905;50.822;4.336;2023-02-19T00:23:32;11.40;99.90
21487;DHT22;10905;50.822;4.336;2023-02-19T00:26:08;11.40;99.90
21487;DHT22;10905;50.822;4.336;2023-02-19T00:28:34;11.40;99.90
21487;DHT22;10905;50.822;4.336;2023-02-19T00:31:08;11.50;99.90
21487;DHT22;10905;50.822;4.336;2023-02-19T00:33:37;11.40;99.90
21487;DHT22;10905;50.822;4.336;2023-02-19T00:36:04;11.40;99.90
21487;DHT22;10905;50.822;4.336;2023-02-19T00:38:30;11.40;99.90
21487;DHT22;10905;50.822;4.336;2023-02-19T00:40:58;11.30;99.90
21487;DHT22;10905;50.822;4.336;2023-02-19T00:43:24;11.40;99.90
21487;DHT22;10905;50.822;4.336;2023-02-19T00:45:50;11.40;99.90
21487;DHT22;10905;50.822;4.336;2023-02-19T00:48:16;11.40;99.90
21487;DHT22;10905;50.822;4.336;2023-02-19T00:50:42;11.50;99.90
21487;DHT22;10905;50.822;4.336;2023-02-19T00:53:07;11.50;99.90
21487;DHT22;10905;50.822;4.336;2023-02-19T00:55:33;11.50;99.90
21487;DHT22;10905;50.822;4.336;2023-02-19T00:57:59;11.60;99.90
21487;DHT22;10905;50.822;4.336;2023-02-19T01:00:24;11.50;99.90
21487;DHT22;10905;50.822;4.336;2023-02-19T01:02:50;11.40;99.90
21487;DHT22;10905;50.822;4.336;2023-02-19T01:05:16;11.50;99.90
21487;DHT22;10905;50.822;4.336;2023-02-19T01:07:41;11.50;99.90
21487;DHT22;10905;50.822;4.336;2023-02-19T01:10:07;11.50;99.90
21487;DHT22;10905;50.822;4.336;2023-02-19T01:12:33;11.60;99.90
21487;DHT22;10905;50.822;4.336;2023-02-19T01:14:58;11.60;99.90
21487;DHT22;10905;50.822;4.336;2023-02-19T01:17:24;11.60;99.90
21487;DHT22;10905;50.822;4.336;2023-02-19T01:19:49;11.50;99.90
21487;DHT22;10905;50.822;4.336;2023-02-19T01:22:15;11.50;99.90
21487;DHT22;10905;50.822;4.336;2023-02-19T01:24:41;11.50;99.90
21487;DHT22;10905;50.822;4.336;2023-02-19T01:27:06;11.40;99.90
21487;DHT22;10905;50.822;4.336;2023-02-19T01:29:32;11.40;99.90
21487;DHT22;10905;50.822;4.336;2023-02-19T01:31:57;11.50;99.90
21487;DHT22;10905;50.822;4.336;2023-02-19T01:34:23;11.40;99.90
21487;DHT22;10905;50.822;4.336;2023-02-19T01:36:49;11.50;99.90
21487;DHT22;10905;50.822;4.336;2023-02-19T01:39:14;11.50;99.90
21487;DHT22;10905;50.822;4.336;2023-02-19T01:41:40;11.50;99.90
21487;DHT22;10905;50.822;4.336;2023-02-19T01:46:38;11.50;99.90
21487;DHT22;10905;50.822;4.336;2023-02-19T01:49:26;11.60;99.90
21487;DHT22;10905;50.822;4.336;2023-02-19T01:54:24;11.50;99.90
21487;DHT22;10905;50.822;4.336;2023-02-19T01:56:51;11.40;99.90
21487;DHT22;10905;50.822;4.336;2023-02-19T01:59:17;11.40;99.90
21487;DHT22;10905;50.822;4.336;2023-02-19T02:01:44;11.30;99.90
21487;DHT22;10905;50.822;4.336;2023-02-19T02:04:11;11.40;99.90
21487;DHT22;10905;50.822;4.336;2023-02-19T02:06:50;11.30;99.90
21487;DHT22;10905;50.822;4.336;2023-02-19T02:09:23;11.30;99.90
21487;DHT22;10905;50.822;4.336;2023-02-19T02:12:09;11.20;99.90
21487;DHT22;10905;50.822;4.336;2023-02-19T02:14:37;11.20;99.90
21487;DHT22;10905;50.822;4.336;2023-02-19T02:23:08;11.30;99.90
21487;DHT22;10905;50.822;4.336;2023-02-19T02:30:22;11.20;99.90
21487;DHT22;10905;50.822;4.336;2023-02-19T02:35:52;11.20;99.90
21487;DHT22;10905;50.822;4.336;2023-02-19T02:38:21;11.20;99.90
21487;DHT22;10905;50.822;4.336;2023-02-19T02:40:50;11.30;99.90
21487;DHT22;10905;50.822;4.336;2023-02-19T02:43:16;11.30;99.90
21487;DHT22;10905;50.822;4.336;2023-02-19T02:45:42;11.30;99.90
21487;DHT22;10905;50.822;4.336;2023-02-19T02:53:33;11.30;99.90
21487;DHT22;10905;50.822;4.336;2023-02-19T02:56:20;11.30;99.90
21487;DHT22;10905;50.822;4.336;2023-02-19T02:58:47;11.30;99.90
21487;DHT22;10905;50.822;4.336;2023-02-19T03:02:03;11.40;99.90
21487;DHT22;10905;50.822;4.336;2023-02-19T03:04:48;11.30;99.90
21487;DHT22;10905;50.822;4.336;2023-02-19T03:07:57;11.30;99.90
21487;DHT22;10905;50.822;4.336;2023-02-19T03:12:54;11.40;99.90
21487;DHT22;10905;50.822;4.336;2023-02-19T03:15:59;11.40;99.90
21487;DHT22;10905;50.822;4.336;2023-02-19T03:18:49;11.40;99.90
21487;DHT22;10905;50.822;4.336;2023-02-19T03:21:36;11.40;99.90
21487;DHT22;10905;50.822;4.336;2023-02-19T03:24:06;11.40;99.90
21487;DHT22;10905;50.822;4.336;2023-02-19T03:26:51;11.30;99.90
21487;DHT22;10905;50.822;4.336;2023-02-19T03:29:24;11.30;99.90
21487;DHT22;10905;50.822;4.336;2023-02-19T03:31:58;11.20;99.90
21487;DHT22;10905;50.822;4.336;2023-02-19T03:34:29;11.10;99.90
21487;DHT22;10905;50.822;4.336;2023-02-19T03:36:58;11.20;99.90
21487;DHT22;10905;50.822;4.336;2023-02-19T03:39:25;11.30;99.90
21487;DHT22;10905;50.822;4.336;2023-02-19T03:42:02;11.30;99.90
21487;DHT22;10905;50.822;4.336;2023-02-19T03:47:23;11.30;99.90
21487;DHT22;10905;50.822;4.336;2023-02-19T03:53:02;11.20;99.90
21487;DHT22;10905;50.822;4.336;2023-02-19T04:01:16;11.20;99.90
21487;DHT22;10905;50.822;4.336;2023-02-19T04:04:17;11.10;99.90
21487;DHT22;10905;50.822;4.336;2023-02-19T04:06:48;11.10;99.90
21487;DHT22;10905;50.822;4.336;2023-02-19T04:09:18;11.10;99.90
21487;DHT22;10905;50.822;4.336;2023-02-19T04:11:45;11.00;99.90
21487;DHT22;10905;50.822;4.336;2023-02-19T04:14:22;11.00;99.90
21487;DHT22;10905;50.822;4.336;2023-02-19T04:16:53;11.00;99.90
21487;DHT22;10905;50.822;4.336;2023-02-19T04:19:25;11.00;99.90
21487;DHT22;10905;50.822;4.336;2023-02-19T04:21:52;11.10;99.90
21487;DHT22;10905;50.822;4.336;2023-02-19T04:24:30;11.10;99.90
21487;DHT22;10905;50.822;4.336;2023-02-19T04:26:57;11.10;99.90
21487;DHT22;10905;50.822;4.336;2023-02-19T04:29:23;11.10;99.90
21487;DHT22;10905;50.822;4.336;2023-02-19T04:31:49;11.10;99.90
21487;DHT22;10905;50.822;4.336;2023-02-19T04:34:15;11.10;99.90
21487;DHT22;10905;50.822;4.336;2023-02-19T04:36:41;11.10;99.90
21487;DHT22;10905;50.822;4.336;2023-02-19T04:39:07;11.00;99.90
21487;DHT22;10905;50.822;4.336;2023-02-19T04:41:33;11.00;99.90
21487;DHT22;10905;50.822;4.336;2023-02-19T04:44:00;11.00;99.90
21487;DHT22;10905;50.822;4.336;2023-02-19T04:46:27;10.90;99.90
21487;DHT22;10905;50.822;4.336;2023-02-19T04:48:52;10.90;99.90
21487;DHT22;10905;50.822;4.336;2023-02-19T04:51:18;10.90;99.90
21487;DHT22;10905;50.822;4.336;2023-02-19T04:53:44;11.00;99.90
21487;DHT22;10905;50.822;4.336;2023-02-19T04:56:12;11.00;99.90
21487;DHT22;10905;50.822;4.336;2023-02-19T04:58:39;10.90;99.90
21487;DHT22;10905;50.822;4.336;2023-02-19T05:01:05;10.90;99.90
21487;DHT22;10905;50.822;4.336;2023-02-19T05:03:31;11.00;99.90
21487;DHT22;10905;50.822;4.336;2023-02-19T05:06:04;11.00;99.90
21487;DHT22;10905;50.822;4.336;2023-02-19T05:08:30;10.90;99.90
21487;DHT22;10905;50.822;4.336;2023-02-19T05:10:59;10.90;99.90
21487;DHT22;10905;50.822;4.336;2023-02-19T05:13:26;10.80;99.90
21487;DHT22;10905;50.822;4.336;2023-02-19T05:15:57;10.90;99.90
21487;DHT22;10905;50.822;4.336;2023-02-19T05:18:23;10.90;99.90
21487;DHT22;10905;50.822;4.336;2023-02-19T05:20:50;11.00;99.90
21487;DHT22;10905;50.822;4.336;2023-02-19T05:23:17;10.90;99.90
21487;DHT22;10905;50.822;4.336;2023-02-19T05:25:44;11.00;99.90
21487;DHT22;10905;50.822;4.336;2023-02-19T05:28:11;11.00;99.90
21487;DHT22;10905;50.822;4.336;2023-02-19T05:30:48;11.00;99.90
21487;DHT22;10905;50.822;4.336;2023-02-19T05:33:16;11.00;99.90
21487;DHT22;10905;50.822;4.336;2023-02-19T05:35:44;10.90;99.90
21487;DHT22;10905;50.822;4.336;2023-02-19T05:38:11;10.80;99.90
21487;DHT22;10905;50.822;4.336;2023-02-19T05:40:37;10.80;99.90
21487;DHT22;10905;50.822;4.336;2023-02-19T05:43:04;10.80;99.90
21487;DHT22;10905;50.822;4.336;2023-02-19T05:45:30;10.80;99.90
21487;DHT22;10905;50.822;4.336;2023-02-19T05:47:57;10.90;99.90
21487;DHT22;10905;50.822;4.336;2023-02-19T05:50:22;10.90;99.90
21487;DHT22;10905;50.822;4.336;2023-02-19T05:52:48;11.00;99.90
21487;DHT22;10905;50.822;4.336;2023-02-19T05:55:14;11.00;99.90
21487;DHT22;10905;50.822;4.336;2023-02-19T05:57:45;11.00;99.90
21487;DHT22;10905;50.822;4.336;2023-02-19T06:00:14;10.90;99.90
21487;DHT22;10905;50.822;4.336;2023-02-19T06:02:41;10.90;99.90
21487;DHT22;10905;50.822;4.336;2023-02-19T06:05:09;10.90;99.90
21487;DHT22;10905;50.822;4.336;2023-02-19T06:07:36;10.90;99.90
21487;DHT22;10905;50.822;4.336;2023-02-19T06:10:05;10.90;99.90
21487;DHT22;10905;50.822;4.336;2023-02-19T06:12:34;10.70;99.90
21487;DHT22;10905;50.822;4.336;2023-02-19T06:14:59;10.70;99.90
21487;DHT22;10905;50.822;4.336;2023-02-19T06:17:25;10.80;99.90
21487;DHT22;10905;50.822;4.336;2023-02-19T06:19:51;10.80;99.90
21487;DHT22;10905;50.822;4.336;2023-02-19T06:22:16;10.90;99.90
21487;DHT22;10905;50.822;4.336;2023-02-19T06:24:42;11.00;99.90
21487;DHT22;10905;50.822;4.336;2023-02-19T06:27:08;11.00;99.90
21487;DHT22;10905;50.822;4.336;2023-02-19T06:29:34;10.90;99.90
21487;DHT22;10905;50.822;4.336;2023-02-19T06:32:03;10.90;99.90
21487;DHT22;10905;50.822;4.336;2023-02-19T06:34:30;10.90;99.90
21487;DHT22;10905;50.822;4.336;2023-02-19T06:36:55;10.90;99.90
21487;DHT22;10905;50.822;4.336;2023-02-19T06:39:21;10.90;99.90
21487;DHT22;10905;50.822;4.336;2023-02-19T06:41:47;10.90;99.90
21487;DHT22;10905;50.822;4.336;2023-02-19T06:44:12;11.00;99.90
21487;DHT22;10905;50.822;4.336;2023-02-19T06:46:38;11.00;99.90
21487;DHT22;10905;50.822;4.336;2023-02-19T06:49:05;10.90;99.90
21487;DHT22;10905;50.822;4.336;2023-02-19T06:51:30;10.90;99.90
21487;DHT22;10905;50.822;4.336;2023-02-19T06:53:58;11.00;99.90
21487;DHT22;10905;50.822;4.336;2023-02-19T06:56:32;11.00;99.90
21487;DHT22;10905;50.822;4.336;2023-02-19T06:59:01;10.90;99.90
21487;DHT22;10905;50.822;4.336;2023-02-19T07:01:30;10.90;99.90
21487;DHT22;10905;50.822;4.336;2023-02-19T07:03:57;11.00;99.90
21487;DHT22;10905;50.822;4.336;2023-02-19T07:06:24;10.90;99.90
21487;DHT22;10905;50.822;4.336;2023-02-19T07:08:51;10.90;99.90
21487;DHT22;10905;50.822;4.336;2023-02-19T07:11:17;10.90;99.90
21487;DHT22;10905;50.822;4.336;2023-02-19T07:13:44;11.00;99.90
21487;DHT22;10905;50.822;4.336;2023-02-19T07:16:10;10.90;99.90
21487;DHT22;10905;50.822;4.336;2023-02-19T07:18:37;10.90;99.90
21487;DHT22;10905;50.822;4.336;2023-02-19T07:23:30;10.90;99.90
21487;DHT22;10905;50.822;4.336;2023-02-19T07:25:56;11.00;99.90
21487;DHT22;10905;50.822;4.336;2023-02-19T07:28:21;10.90;99.90
21487;DHT22;10905;50.822;4.336;2023-02-19T07:30:47;11.00;99.90
21487;DHT22;10905;50.822;4.336;2023-02-19T07:33:12;10.90;99.90
21487;DHT22;10905;50.822;4.336;2023-02-19T07:35:45;11.00;99.90
21487;DHT22;10905;50.822;4.336;2023-02-19T07:38:11;11.00;99.90
21487;DHT22;10905;50.822;4.336;2023-02-19T07:40:36;11.00;99.90
21487;DHT22;10905;50.822;4.336;2023-02-19T07:43:02;10.90;99.90
21487;DHT22;10905;50.822;4.336;2023-02-19T07:45:28;11.00;99.90
21487;DHT22;10905;50.822;4.336;2023-02-19T07:47:54;11.10;99.90
21487;DHT22;10905;50.822;4.336;2023-02-19T07:50:19;11.00;99.90
21487;DHT22;10905;50.822;4.336;2023-02-19T07:52:45;11.00;99.90
21487;DHT22;10905;50.822;4.336;2023-02-19T07:55:10;11.10;99.90
21487;DHT22;10905;50.822;4.336;2023-02-19T07:57:36;11.10;99.90
21487;DHT22;10905;50.822;4.336;2023-02-19T08:00:02;11.10;99.90
21487;DHT22;10905;50.822;4.336;2023-02-19T08:02:28;10.90;99.90
21487;DHT22;10905;50.822;4.336;2023-02-19T08:05:12;11.10;99.90
21487;DHT22;10905;50.822;4.336;2023-02-19T08:07:38;11.00;99.90
21487;DHT22;10905;50.822;4.336;2023-02-19T08:10:04;11.00;99.90
21487;DHT22;10905;50.822;4.336;2023-02-19T08:12:58;11.10;99.90
21487;DHT22;10905;50.822;4.336;2023-02-19T08:15:43;11.10;99.90
21487;DHT22;10905;50.822;4.336;2023-02-19T08:18:09;11.10;99.90
21487;DHT22;10905;50.822;4.336;2023-02-19T08:20:35;11.10;99.90
21487;DHT22;10905;50.822;4.336;2023-02-19T08:23:03;11.10;99.90
21487;DHT22;10905;50.822;4.336;2023-02-19T08:25:28;11.30;99.90
21487;DHT22;10905;50.822;4.336;2023-02-19T08:27:57;11.30;99.90
21487;DHT22;10905;50.822;4.336;2023-02-19T08:30:28;11.40;99.90
21487;DHT22;10905;50.822;4.336;2023-02-19T08:32:54;11.40;99.90
21487;DHT22;10905;50.822;4.336;2023-02-19T08:35:20;11.50;99.90
21487;DHT22;10905;50.822;4.336;2023-02-19T08:37:46;11.50;99.90
21487;DHT22;10905;50.822;4.336;2023-02-19T08:40:12;11.50;99.90
21487;DHT22;10905;50.822;4.336;2023-02-19T08:42:38;11.40;99.90
21487;DHT22;10905;50.822;4.336;2023-02-19T08:45:04;11.40;99.90
21487;DHT22;10905;50.822;4.336;2023-02-19T08:47:29;11.40;99.90
21487;DHT22;10905;50.822;4.336;2023-02-19T08:49:55;11.50;99.90
21487;DHT22;10905;50.822;4.336;2023-02-19T08:52:21;11.30;99.90
21487;DHT22;10905;50.822;4.336;2023-02-19T08:54:46;11.30;99.90
21487;DHT22;10905;50.822;4.336;2023-02-19T08:57:12;11.40;99.90
21487;DHT22;10905;50.822;4.336;2023-02-19T08:59:37;11.30;99.90
21487;DHT22;10905;50.822;4.336;2023-02-19T09:02:03;11.30;99.90
21487;DHT22;10905;50.822;4.336;2023-02-19T09:04:29;11.30;99.90
21487;DHT22;10905;50.822;4.336;2023-02-19T09:06:55;11.30;99.90
21487;DHT22;10905;50.822;4.336;2023-02-19T09:09:20;11.30;99.90
21487;DHT22;10905;50.822;4.336;2023-02-19T09:11:46;11.30;99.90
21487;DHT22;10905;50.822;4.336;2023-02-19T09:14:11;11.30;99.90
21487;DHT22;10905;50.822;4.336;2023-02-19T09:16:37;11.20;99.90
21487;DHT22;10905;50.822;4.336;2023-02-19T09:19:03;11.30;99.90
21487;DHT22;10905;50.822;4.336;2023-02-19T09:21:29;11.40;99.90
21487;DHT22;10905;50.822;4.336;2023-02-19T09:23:55;11.30;99.90
21487;DHT22;10905;50.822;4.336;2023-02-19T09:26:20;11.40;99.90
21487;DHT22;10905;50.822;4.336;2023-02-19T09:28:46;11.60;99.90
21487;DHT22;10905;50.822;4.336;2023-02-19T09:31:13;11.50;99.90
21487;DHT22;10905;50.822;4.336;2023-02-19T09:33:47;11.40;99.90
21487;DHT22;10905;50.822;4.336;2023-02-19T09:36:14;11.40;99.90
21487;DHT22;10905;50.822;4.336;2023-02-19T09:38:40;11.50;99.90
21487;DHT22;10905;50.822;4.336;2023-02-19T09:41:41;11.70;99.90
21487;DHT22;10905;50.822;4.336;2023-02-19T09:44:12;11.50;99.90
21487;DHT22;10905;50.822;4.336;2023-02-19T09:46:47;11.60;99.90
21487;DHT22;10905;50.822;4.336;2023-02-19T09:49:17;11.70;99.90
21487;DHT22;10905;50.822;4.336;2023-02-19T09:51:48;11.90;99.90
21487;DHT22;10905;50.822;4.336;2023-02-19T09:54:26;12.00;99.90
21487;DHT22;10905;50.822;4.336;2023-02-19T09:56:56;12.20;99.90
21487;DHT22;10905;50.822;4.336;2023-02-19T09:59:27;12.20;99.90
21487;DHT22;10905;50.822;4.336;2023-02-19T10:02:09;12.10;99.90
21487;DHT22;10905;50.822;4.336;2023-02-19T10:04:38;12.10;99.90
21487;DHT22;10905;50.822;4.336;2023-02-19T10:07:17;12.10;99.90
21487;DHT22;10905;50.822;4.336;2023-02-19T10:09:47;12.10;99.90
21487;DHT22;10905;50.822;4.336;2023-02-19T10:12:23;12.00;99.90
21487;DHT22;10905;50.822;4.336;2023-02-19T10:14:51;12.10;99.90
21487;DHT22;10905;50.822;4.336;2023-02-19T10:17:28;12.10;99.90
21487;DHT22;10905;50.822;4.336;2023-02-19T10:19:55;12.20;99.90
21487;DHT22;10905;50.822;4.336;2023-02-19T10:22:21;12.10;99.90
21487;DHT22;10905;50.822;4.336;2023-02-19T10:24:51;12.10;99.90
21487;DHT22;10905;50.822;4.336;2023-02-19T10:27:18;12.10;99.90
21487;DHT22;10905;50.822;4.336;2023-02-19T10:29:45;12.30;99.90
21487;DHT22;10905;50.822;4.336;2023-02-19T10:32:17;12.40;99.90
21487;DHT22;10905;50.822;4.336;2023-02-19T10:34:45;12.30;99.90
21487;DHT22;10905;50.822;4.336;2023-02-19T10:37:16;12.20;99.90
21487;DHT22;10905;50.822;4.336;2023-02-19T10:39:45;12.40;99.90
21487;DHT22;10905;50.822;4.336;2023-02-19T10:42:17;12.30;99.90
21487;DHT22;10905;50.822;4.336;2023-02-19T10:44:46;12.30;99.90
21487;DHT22;10905;50.822;4.336;2023-02-19T10:47:18;12.20;99.90
21487;DHT22;10905;50.822;4.336;2023-02-19T10:49:45;11.90;99.90
21487;DHT22;10905;50.822;4.336;2023-02-19T10:52:24;12.00;99.90
21487;DHT22;10905;50.822;4.336;2023-02-19T10:54:57;12.00;99.90
21487;DHT22;10905;50.822;4.336;2023-02-19T10:57:28;12.20;99.90
21487;DHT22;10905;50.822;4.336;2023-02-19T11:02:40;12.20;99.90
21487;DHT22;10905;50.822;4.336;2023-02-19T11:07:48;12.20;99.90
21487;DHT22;10905;50.822;4.336;2023-02-19T11:10:31;12.20;99.90
21487;DHT22;10905;50.822;4.336;2023-02-19T11:13:03;12.20;99.90
21487;DHT22;10905;50.822;4.336;2023-02-19T11:15:33;12.30;99.90
21487;DHT22;10905;50.822;4.336;2023-02-19T11:18:03;12.30;99.90
21487;DHT22;10905;50.822;4.336;2023-02-19T11:20:31;12.30;99.90
21487;DHT22;10905;50.822;4.336;2023-02-19T11:23:11;12.30;99.90
21487;DHT22;10905;50.822;4.336;2023-02-19T11:25:47;12.50;99.90
21487;DHT22;10905;50.822;4.336;2023-02-19T11:28:27;12.50;99.90
21487;DHT22;10905;50.822;4.336;2023-02-19T11:30:54;12.50;99.90
21487;DHT22;10905;50.822;4.336;2023-02-19T11:33:26;12.50;99.90
21487;DHT22;10905;50.822;4.336;2023-02-19T11:38:39;12.40;99.90
21487;DHT22;10905;50.822;4.336;2023-02-19T11:46:44;12.10;99.90
21487;DHT22;10905;50.822;4.336;2023-02-19T11:49:25;12.00;99.90
21487;DHT22;10905;50.822;4.336;2023-02-19T11:54:48;12.10;99.90
21487;DHT22;10905;50.822;4.336;2023-02-19T12:00:21;12.30;99.90
21487;DHT22;10905;50.822;4.336;2023-02-19T12:08:42;12.10;99.90
21487;DHT22;10905;50.822;4.336;2023-02-19T12:22:48;12.10;99.90
21487;DHT22;10905;50.822;4.336;2023-02-19T12:39:46;12.00;99.90
21487;DHT22;10905;50.822;4.336;2023-02-19T12:45:25;12.00;99.90
21487;DHT22;10905;50.822;4.336;2023-02-19T12:48:34;11.90;99.90
21487;DHT22;10905;50.822;4.336;2023-02-19T12:51:18;11.90;99.90
21487;DHT22;10905;50.822;4.336;2023-02-19T12:56:29;12.10;99.90
21487;DHT22;10905;50.822;4.336;2023-02-19T12:59:23;12.10;99.90
21487;DHT22;10905;50.822;4.336;2023-02-19T13:08:25;11.90;99.90
21487;DHT22;10905;50.822;4.336;2023-02-19T13:11:05;11.70;99.90
21487;DHT22;10905;50.822;4.336;2023-02-19T13:13:34;11.70;99.90
21487;DHT22;10905;50.822;4.336;2023-02-19T13:16:07;11.70;99.90
21487;DHT22;10905;50.822;4.336;2023-02-19T13:18:57;11.70;99.90
21487;DHT22;10905;50.822;4.336;2023-02-19T13:21:27;11.80;99.90
21487;DHT22;10905;50.822;4.336;2023-02-19T13:24:32;11.80;99.90
21487;DHT22;10905;50.822;4.336;2023-02-19T13:30:11;11.90;99.90
21487;DHT22;10905;50.822;4.336;2023-02-19T13:35:55;11.40;99.90
21487;DHT22;10905;50.822;4.336;2023-02-19T13:38:25;11.60;99.90
21487;DHT22;10905;50.822;4.336;2023-02-19T13:40:57;11.70;99.90
21487;DHT22;10905;50.822;4.336;2023-02-19T13:43:26;11.50;99.90
21487;DHT22;10905;50.822;4.336;2023-02-19T13:46:13;11.50;99.90
21487;DHT22;10905;50.822;4.336;2023-02-19T13:48:41;11.60;99.90
21487;DHT22;10905;50.822;4.336;2023-02-19T13:59:38;11.30;99.90
21487;DHT22;10905;50.822;4.336;2023-02-19T14:02:10;11.30;99.90
21487;DHT22;10905;50.822;4.336;2023-02-19T14:04:55;11.30;99.90
21487;DHT22;10905;50.822;4.336;2023-02-19T14:09:59;11.50;99.90
21487;DHT22;10905;50.822;4.336;2023-02-19T14:12:34;11.60;99.90
21487;DHT22;10905;50.822;4.336;2023-02-19T14:21:33;11.60;99.90
21487;DHT22;10905;50.822;4.336;2023-02-19T14:23:59;11.80;99.90
21487;DHT22;10905;50.822;4.336;2023-02-19T14:26:26;11.80;99.90
21487;DHT22;10905;50.822;4.336;2023-02-19T14:28:55;11.70;99.90
21487;DHT22;10905;50.822;4.336;2023-02-19T14:31:30;11.50;99.90
21487;DHT22;10905;50.822;4.336;2023-02-19T14:34:02;11.50;99.90
21487;DHT22;10905;50.822;4.336;2023-02-19T14:39:30;11.40;99.90
21487;DHT22;10905;50.822;4.336;2023-02-19T14:42:26;11.40;99.90
21487;DHT22;10905;50.822;4.336;2023-02-19T14:45:00;11.40;99.90
21487;DHT22;10905;50.822;4.336;2023-02-19T14:47:29;11.40;99.90
21487;DHT22;10905;50.822;4.336;2023-02-19T14:50:07;11.40;99.90
21487;DHT22;10905;50.822;4.336;2023-02-19T14:52:43;11.50;99.90
21487;DHT22;10905;50.822;4.336;2023-02-19T14:55:27;11.50;99.90
21487;DHT22;10905;50.822;4.336;2023-02-19T14:57:55;11.40;99.90
21487;DHT22;10905;50.822;4.336;2023-02-19T15:00:25;11.50;99.90
21487;DHT22;10905;50.822;4.336;2023-02-19T15:02:53;11.50;99.90
21487;DHT22;10905;50.822;4.336;2023-02-19T15:05:24;11.50;99.90
21487;DHT22;10905;50.822;4.336;2023-02-19T15:07:54;11.30;99.90
21487;DHT22;10905;50.822;4.336;2023-02-19T15:10:21;11.40;99.90
21487;DHT22;10905;50.822;4.336;2023-02-19T15:13:02;11.40;99.90
21487;DHT22;10905;50.822;4.336;2023-02-19T15:15:32;11.30;99.90
21487;DHT22;10905;50.822;4.336;2023-02-19T15:18:00;11.30;99.90
21487;DHT22;10905;50.822;4.336;2023-02-19T15:20:29;11.20;99.90
21487;DHT22;10905;50.822;4.336;2023-02-19T15:22:56;11.20;99.90
21487;DHT22;10905;50.822;4.336;2023-02-19T15:25:26;11.10;99.90
21487;DHT22;10905;50.822;4.336;2023-02-19T15:27:53;11.00;99.90
21487;DHT22;10905;50.822;4.336;2023-02-19T15:30:20;11.20;99.90
21487;DHT22;10905;50.822;4.336;2023-02-19T15:32:58;11.20;99.90
21487;DHT22;10905;50.822;4.336;2023-02-19T15:35:26;11.10;99.90
21487;DHT22;10905;50.822;4.336;2023-02-19T15:37:53;11.10;99.90
21487;DHT22;10905;50.822;4.336;2023-02-19T15:40:29;10.80;99.90
21487;DHT22;10905;50.822;4.336;2023-02-19T15:42:55;10.90;99.90
21487;DHT22;10905;50.822;4.336;2023-02-19T15:45:30;10.90;99.90
21487;DHT22;10905;50.822;4.336;2023-02-19T15:48:13;11.00;99.90
21487;DHT22;10905;50.822;4.336;2023-02-19T15:50:50;10.90;99.90
21487;DHT22;10905;50.822;4.336;2023-02-19T15:53:26;10.90;99.90
21487;DHT22;10905;50.822;4.336;2023-02-19T15:56:08;10.80;99.90
21487;DHT22;10905;50.822;4.336;2023-02-19T15:58:49;10.80;99.90
21487;DHT22;10905;50.822;4.336;2023-02-19T16:01:32;10.70;99.90
21487;DHT22;10905;50.822;4.336;2023-02-19T16:03:58;10.90;99.90
21487;DHT22;10905;50.822;4.336;2023-02-19T16:06:25;11.00;99.90
21487;DHT22;10905;50.822;4.336;2023-02-19T16:13:49;10.80;99.90
21487;DHT22;10905;50.822;4.336;2023-02-19T16:16:27;10.70;99.90
21487;DHT22;10905;50.822;4.336;2023-02-19T16:18:55;10.70;99.90
21487;DHT22;10905;50.822;4.336;2023-02-19T16:21:23;10.60;99.90
21487;DHT22;10905;50.822;4.336;2023-02-19T16:24:26;10.70;99.90
21487;DHT22;10905;50.822;4.336;2023-02-19T16:26:53;10.90;99.90
21487;DHT22;10905;50.822;4.336;2023-02-19T16:29:28;10.90;99.90
21487;DHT22;10905;50.822;4.336;2023-02-19T16:32:03;10.60;99.90
21487;DHT22;10905;50.822;4.336;2023-02-19T16:34:47;10.70;99.90
21487;DHT22;10905;50.822;4.336;2023-02-19T16:37:36;10.70;99.90
21487;DHT22;10905;50.822;4.336;2023-02-19T16:42:37;10.60;99.90
21487;DHT22;10905;50.822;4.336;2023-02-19T16:45:21;10.60;99.90
21487;DHT22;10905;50.822;4.336;2023-02-19T16:47:47;10.50;99.90
21487;DHT22;10905;50.822;4.336;2023-02-19T16:50:17;10.60;99.90
21487;DHT22;10905;50.822;4.336;2023-02-19T16:52:55;10.60;99.90
21487;DHT22;10905;50.822;4.336;2023-02-19T16:55:21;10.70;99.90
21487;DHT22;10905;50.822;4.336;2023-02-19T16:57:47;10.80;99.90
21487;DHT22;10905;50.822;4.336;2023-02-19T17:00:18;10.80;99.90
21487;DHT22;10905;50.822;4.336;2023-02-19T17:02:48;10.70;99.90
21487;DHT22;10905;50.822;4.336;2023-02-19T17:05:16;10.70;99.90
21487;DHT22;10905;50.822;4.336;2023-02-19T17:07:42;10.80;99.90
21487;DHT22;10905;50.822;4.336;2023-02-19T17:10:17;10.70;99.90
21487;DHT22;10905;50.822;4.336;2023-02-19T17:12:43;10.70;99.90
21487;DHT22;10905;50.822;4.336;2023-02-19T17:15:09;10.80;99.90
21487;DHT22;10905;50.822;4.336;2023-02-19T17:17:35;10.70;99.90
21487;DHT22;10905;50.822;4.336;2023-02-19T17:20:01;10.60;99.90
21487;DHT22;10905;50.822;4.336;2023-02-19T17:22:26;10.60;99.90
21487;DHT22;10905;50.822;4.336;2023-02-19T17:24:52;10.50;99.90
21487;DHT22;10905;50.822;4.336;2023-02-19T17:27:19;10.50;99.90
21487;DHT22;10905;50.822;4.336;2023-02-19T17:29:45;10.60;99.90
21487;DHT22;10905;50.822;4.336;2023-02-19T17:32:10;10.60;99.90
21487;DHT22;10905;50.822;4.336;2023-02-19T17:34:36;10.60;99.90
21487;DHT22;10905;50.822;4.336;2023-02-19T17:37:02;10.50;99.90
21487;DHT22;10905;50.822;4.336;2023-02-19T17:39:27;10.50;99.90
21487;DHT22;10905;50.822;4.336;2023-02-19T17:41:53;10.50;99.90
21487;DHT22;10905;50.822;4.336;2023-02-19T17:44:18;10.50;99.90
21487;DHT22;10905;50.822;4.336;2023-02-19T17:46:47;10.50;99.90
21487;DHT22;10905;50.822;4.336;2023-02-19T17:49:13;10.50;99.90
21487;DHT22;10905;50.822;4.336;2023-02-19T17:51:39;10.30;99.90
21487;DHT22;10905;50.822;4.336;2023-02-19T17:54:05;10.40;99.90
21487;DHT22;10905;50.822;4.336;2023-02-19T17:56:30;10.40;99.90
21487;DHT22;10905;50.822;4.336;2023-02-19T17:58:56;10.50;99.90
21487;DHT22;10905;50.822;4.336;2023-02-19T18:01:22;10.50;99.90
21487;DHT22;10905;50.822;4.336;2023-02-19T18:03:49;10.50;99.90
21487;DHT22;10905;50.822;4.336;2023-02-19T18:06:14;10.50;99.90
21487;DHT22;10905;50.822;4.336;2023-02-19T18:08:48;10.40;99.90